• Join FlightAware (Why Join?)
  • Login
  • US Flag 
11:19AM EDT


 

Airport Tracker/Info


-or-


 

Live Flight TrackerFlight Track Log ✈ AWE3208 ✈ 26-May-2013 ✈ KCLT - KBUF

Flight Track Log - Related Links

Times and Time Zones

All times are in EDT time to prevent confusion due to time zone crossing. See the AWE3208 flight status page for this flight to view local times or setup timezone preferences in your user account.

Time Position Orientation Groundspeed Altitude Reporting Facility
EDT Latitude Longitude Course Direction KTS MPH feet Rate Location/Type
09:36AM 35.2311 -80.9569 52° Northeast 156 180 1,600  Level Atlanta Center
09:37AM 35.2778 -80.9936 327° Northwest 214 246 3,300 1,560 Climbing Atlanta Center
09:37AM 35.3014 -81.0156 323° Northwest 236 272 3,900 2,220 Climbing Atlanta Center
09:38AM 35.1221 -81.2167 North  Level FlightAware Approximate
09:38AM 35.3531 -81.0008 13° North 272 313 5,800  Level Atlanta Center
09:39AM 35.2390 -81.2167 North  Level FlightAware Approximate
09:39AM 35.4050 -80.9861 13° North 285 328 8,000  Level Atlanta Center
09:39AM 35.4400 -80.9722 18° North 281 323 9,400 1,380 Climbing Atlanta Center
09:40AM 35.3111 -81.1232 52° Northeast  Level FlightAware Approximate
09:40AM 35.5250 -80.9486 13° North 299 344 10,100  Level Atlanta Center
09:41AM 35.3829 -81.0103 52° Northeast  Level FlightAware Approximate
09:41AM 35.6097 -80.9197 15° North 310 357 12,600  Level Atlanta Center
09:42AM 35.6947 -80.8961 13° North 310 357 15,000 2,460 Climbing Atlanta Center
09:43AM 35.7881 -80.8772 North 326 375 17,600 2,100 Climbing Atlanta Center
09:44AM 35.8797 -80.8658 North 326 375 19,200 1,680 Climbing Atlanta Center
09:45AM 35.9772 -80.8544 North 336 387 21,000 1,860 Climbing Atlanta Center
09:46AM 36.0731 -80.8431 North 351 404 23,000 960 Climbing Atlanta Center
09:47AM 36.1728 -80.8286 North 351 404 23,000 180 Level Atlanta Center
09:48AM 36.2600 -80.8175 North 351 404 23,400 900 Climbing Atlanta Center
09:49AM 36.3597 -80.8058 North 351 404 24,900 1,380 Climbing Atlanta Center
09:50AM 36.4594 -80.7914 North 351 404 26,200 1,200 Climbing Atlanta Center
09:51AM 36.5633 -80.7769 North 362 417 27,400 1,200 Climbing Atlanta Center
09:53AM 36.7833 -80.7553 North 379 436 29,800 1,080 Climbing Washington Center
09:54AM 36.8922 -80.7419 North 385 443 30,700 900 Climbing Washington Center
09:55AM 37.0036 -80.7286 North 390 449 31,600 1,020 Climbing Washington Center
09:56AM 37.1169 -80.7075 North 395 455 32,800 660 Climbing Washington Center
09:57AM 37.2228 -80.6728 15° North 395 455 33,000 60 Climbing Washington Center
09:58AM 37.3225 -80.6378 16° North 395 455 33,000  Level Washington Center
09:59AM 37.4303 -80.6031 14° North 401 461 33,000  Level Washington Center
10:00AM 37.5381 -80.5683 14° North 401 461 33,000  Level Washington Center
10:01AM 37.6461 -80.5281 16° North 401 461 33,000  Level Washington Center
10:02AM 37.7667 -80.4914 14° North 401 461 33,000  Level Washington Center
10:03AM 37.8725 -80.4533 16° North 401 461 33,000  Level Washington Center
10:04AM 37.9803 -80.4183 14° North 401 461 33,000  Level Washington Center
10:05AM 38.0861 -80.3803 16° North 401 461 33,000  Level Washington Center
10:06AM 38.1917 -80.3447 15° North 396 456 33,000  Level Washington Center
10:07AM 38.2867 -80.3139 14° North 396 456 33,000  Level Washington Center
10:08AM 38.3947 -80.2731 16° North 396 456 33,000  Level Washington Center
10:09AM 38.5003 -80.2397 14° North 396 456 33,000  Level Washington Center
10:10AM 38.6061 -80.2014 16° North 391 450 33,000  Level Washington Center
10:11AM 38.7244 -80.1608 15° North 391 450 33,000  Level Washington Center
10:13AM 38.9342 -80.0869 15° North 406 467 33,000  Level Cleveland Center
10:14AM 39.0386 -80.0886 359° North 393 452 33,000  Level Cleveland Center
10:15AM 39.1447 -80.0961 357° North 384 442 33,000  Level Cleveland Center
10:16AM 39.2511 -80.0978 359° North 384 442 33,000  Level Cleveland Center
10:17AM 39.3572 -80.0731 10° North 384 442 33,000  Level Cleveland Center
10:18AM 39.4636 -80.0453 11° North 384 442 33,000  Level Cleveland Center
10:19AM 39.5675 -80.0203 11° North 389 448 33,000  Level Cleveland Center
10:20AM 39.6758 -79.9925 11° North 389 448 33,000  Level Cleveland Center
10:21AM 39.7819 -79.9700 North 389 448 33,000  Level Cleveland Center
10:22AM 39.8903 -79.9419 11° North 389 448 33,000  Level Cleveland Center
10:23AM 39.9964 -79.9164 10° North 389 448 33,000  Level Cleveland Center
10:24AM 40.1047 -79.8908 10° North 389 448 33,000  Level Cleveland Center
10:25AM 40.2108 -79.8628 11° North 389 448 33,000  Level Cleveland Center
10:26AM 40.3169 -79.8369 11° North 389 448 33,000  Level Cleveland Center
10:27AM 40.4128 -79.8114 11° North 389 448 33,000  Level Cleveland Center
10:28AM 40.5189 -79.7856 10° North 389 448 33,000  Level Cleveland Center
10:29AM 40.6228 -79.7597 11° North 389 448 33,000  Level Cleveland Center
10:30AM 40.7269 -79.7311 12° North 389 448 33,000  Level Cleveland Center
10:31AM 40.8350 -79.7050 10° North 389 448 33,000  Level Cleveland Center
10:32AM 40.9369 -79.6789 11° North 389 448 33,000 -360 Level Cleveland Center
10:33AM 41.0453 -79.6525 10° North 389 448 32,300 -840 Descending Cleveland Center
10:34AM 41.1514 -79.6236 12° North 389 448 31,400 -960 Descending Cleveland Center
10:35AM 41.2594 -79.5969 11° North 389 448 30,400 -1,020 Descending Cleveland Center
10:36AM 41.3678 -79.5678 11° North 389 448 29,400 -1,020 Descending Cleveland Center
10:37AM 41.4736 -79.5411 11° North 389 448 28,400 -1,140 Descending Cleveland Center
10:38AM 41.5819 -79.5144 10° North 389 448 27,200 -1,560 Descending Cleveland Center
10:39AM 41.6858 -79.4878 11° North 389 448 25,300 -1,860 Descending Cleveland Center
10:40AM 41.7856 -79.4581 13° North 383 441 23,500 -1,800 Descending Cleveland Center
10:41AM 41.8833 -79.4342 10° North 365 420 21,800 -1,740 Descending Cleveland Center
10:42AM 41.9811 -79.4100 10° North 354 407 20,100 -1,740 Descending Cleveland Center
10:43AM 42.0747 -79.3831 12° North 354 407 18,400 -1,500 Descending Cleveland Center
10:44AM 42.1661 -79.3589 11° North 349 402 17,100 -1,560 Descending Cleveland Center
10:45AM 42.2533 -79.3350 11° North 330 380 15,300 -1,680 Descending Cleveland Center
10:46AM 42.3428 -79.3133 10° North 330 380 13,800 -1,680 Descending Cleveland Center
10:48AM 42.5169 -79.2339 19° North 313 360 10,400 -1,320 Descending Cleveland Center
10:49AM 42.5831 -79.1733 34° Northeast 295 339 10,000 -480 Descending Cleveland Center
10:50AM 42.6428 -79.1183 34° Northeast 275 316 9,500 -1,200 Descending Cleveland Center
10:51AM 42.7025 -79.0661 33° Northeast 262 302 7,700 -1,740 Descending Cleveland Center
10:52AM 42.7561 -79.0194 33° Northeast 256 295 6,100 -1,380 Descending Cleveland Center
10:53AM 42.8136 -78.9672 34° Northeast 256 295 5,000 -300 Descending Cleveland Center
10:56AM 42.9833 -78.8167 33° Northeast 256 295 5,000 -180 Level Buffalo TRACON
10:57AM 43.0333 -78.7500 44° Northeast 236 272 4,400 -780 Descending Buffalo TRACON
10:58AM 43.0667 -78.6833 56° Northeast 201 231 3,500 -900 Descending Buffalo TRACON